sensor_id;sensor_type;location;lat;lon;timestamp;P1;durP1;ratioP1;P2;durP2;ratioP2
65757;SDS011;52495;52.208;5.158;2024-02-21T00:02:07;11.18;;;3.92;;
65757;SDS011;52495;52.208;5.158;2024-02-21T00:04:33;14.52;;;4.55;;
65757;SDS011;52495;52.208;5.158;2024-02-21T00:07:01;17.23;;;4.32;;
65757;SDS011;52495;52.208;5.158;2024-02-21T00:09:28;11.75;;;4.13;;
65757;SDS011;52495;52.208;5.158;2024-02-21T00:11:57;12.98;;;3.75;;
65757;SDS011;52495;52.208;5.158;2024-02-21T00:14:24;15.25;;;3.63;;
65757;SDS011;52495;52.208;5.158;2024-02-21T00:16:51;14.70;;;3.63;;
65757;SDS011;52495;52.208;5.158;2024-02-21T00:19:18;13.05;;;4.38;;
65757;SDS011;52495;52.208;5.158;2024-02-21T00:21:45;12.40;;;3.28;;
65757;SDS011;52495;52.208;5.158;2024-02-21T00:24:12;14.20;;;3.97;;
65757;SDS011;52495;52.208;5.158;2024-02-21T00:26:38;17.88;;;3.58;;
65757;SDS011;52495;52.208;5.158;2024-02-21T00:29:07;14.43;;;3.47;;
65757;SDS011;52495;52.208;5.158;2024-02-21T00:31:33;12.95;;;3.38;;
65757;SDS011;52495;52.208;5.158;2024-02-21T00:34:00;16.58;;;3.40;;
65757;SDS011;52495;52.208;5.158;2024-02-21T00:36:27;16.55;;;3.90;;
65757;SDS011;52495;52.208;5.158;2024-02-21T00:38:53;19.13;;;3.55;;
65757;SDS011;52495;52.208;5.158;2024-02-21T00:41:20;17.40;;;3.20;;
65757;SDS011;52495;52.208;5.158;2024-02-21T00:43:47;12.32;;;3.00;;
65757;SDS011;52495;52.208;5.158;2024-02-21T00:46:16;16.17;;;3.50;;
65757;SDS011;52495;52.208;5.158;2024-02-21T00:48:43;18.52;;;4.10;;
65757;SDS011;52495;52.208;5.158;2024-02-21T00:51:10;14.00;;;3.75;;
65757;SDS011;52495;52.208;5.158;2024-02-21T00:53:36;19.38;;;3.72;;
65757;SDS011;52495;52.208;5.158;2024-02-21T00:56:04;16.70;;;3.28;;
65757;SDS011;52495;52.208;5.158;2024-02-21T00:58:31;12.95;;;3.28;;
65757;SDS011;52495;52.208;5.158;2024-02-21T01:00:57;14.68;;;3.45;;
65757;SDS011;52495;52.208;5.158;2024-02-21T01:03:25;17.40;;;3.88;;
65757;SDS011;52495;52.208;5.158;2024-02-21T01:05:52;19.52;;;3.92;;
65757;SDS011;52495;52.208;5.158;2024-02-21T01:08:19;11.30;;;3.05;;
65757;SDS011;52495;52.208;5.158;2024-02-21T01:10:46;17.90;;;4.00;;
65757;SDS011;52495;52.208;5.158;2024-02-21T01:13:12;11.52;;;4.18;;
65757;SDS011;52495;52.208;5.158;2024-02-21T01:15:39;14.07;;;4.13;;
65757;SDS011;52495;52.208;5.158;2024-02-21T01:18:06;13.50;;;3.70;;
65757;SDS011;52495;52.208;5.158;2024-02-21T01:20:34;15.35;;;3.75;;
65757;SDS011;52495;52.208;5.158;2024-02-21T01:23:00;17.88;;;4.53;;
65757;SDS011;52495;52.208;5.158;2024-02-21T01:25:27;15.90;;;4.50;;
65757;SDS011;52495;52.208;5.158;2024-02-21T01:27:54;14.07;;;4.45;;
65757;SDS011;52495;52.208;5.158;2024-02-21T01:30:21;21.23;;;4.20;;
65757;SDS011;52495;52.208;5.158;2024-02-21T01:32:47;18.90;;;4.50;;
65757;SDS011;52495;52.208;5.158;2024-02-21T01:35:14;16.10;;;5.00;;
65757;SDS011;52495;52.208;5.158;2024-02-21T01:37:42;16.67;;;5.05;;
65757;SDS011;52495;52.208;5.158;2024-02-21T01:40:09;16.77;;;4.40;;
65757;SDS011;52495;52.208;5.158;2024-02-21T01:42:38;16.25;;;4.07;;
65757;SDS011;52495;52.208;5.158;2024-02-21T01:45:06;16.55;;;3.90;;
65757;SDS011;52495;52.208;5.158;2024-02-21T01:47:33;14.02;;;3.67;;
65757;SDS011;52495;52.208;5.158;2024-02-21T01:50:00;16.15;;;4.22;;
65757;SDS011;52495;52.208;5.158;2024-02-21T01:52:27;15.23;;;3.72;;
65757;SDS011;52495;52.208;5.158;2024-02-21T01:54:56;15.90;;;3.67;;
65757;SDS011;52495;52.208;5.158;2024-02-21T01:57:23;17.35;;;4.25;;
65757;SDS011;52495;52.208;5.158;2024-02-21T01:59:50;17.45;;;4.60;;
65757;SDS011;52495;52.208;5.158;2024-02-21T02:02:17;16.67;;;4.07;;
65757;SDS011;52495;52.208;5.158;2024-02-21T02:04:45;15.43;;;4.03;;
65757;SDS011;52495;52.208;5.158;2024-02-21T02:07:12;18.08;;;3.47;;
65757;SDS011;52495;52.208;5.158;2024-02-21T02:09:39;16.20;;;3.95;;
65757;SDS011;52495;52.208;5.158;2024-02-21T02:12:08;17.83;;;3.95;;
65757;SDS011;52495;52.208;5.158;2024-02-21T02:14:35;14.50;;;3.83;;
65757;SDS011;52495;52.208;5.158;2024-02-21T02:17:02;14.50;;;3.95;;
65757;SDS011;52495;52.208;5.158;2024-02-21T02:19:28;18.45;;;3.95;;
65757;SDS011;52495;52.208;5.158;2024-02-21T02:21:56;16.65;;;3.78;;
65757;SDS011;52495;52.208;5.158;2024-02-21T02:24:29;14.80;;;3.40;;
65757;SDS011;52495;52.208;5.158;2024-02-21T02:26:55;12.55;;;3.42;;
65757;SDS011;52495;52.208;5.158;2024-02-21T02:29:22;16.33;;;4.38;;
65757;SDS011;52495;52.208;5.158;2024-02-21T02:31:49;15.10;;;3.95;;
65757;SDS011;52495;52.208;5.158;2024-02-21T02:34:16;17.90;;;3.90;;
65757;SDS011;52495;52.208;5.158;2024-02-21T02:36:42;18.48;;;4.63;;
65757;SDS011;52495;52.208;5.158;2024-02-21T02:39:09;18.48;;;4.15;;
65757;SDS011;52495;52.208;5.158;2024-02-21T02:41:37;18.73;;;4.85;;
65757;SDS011;52495;52.208;5.158;2024-02-21T02:44:04;13.60;;;3.58;;
65757;SDS011;52495;52.208;5.158;2024-02-21T02:46:31;17.15;;;3.63;;
65757;SDS011;52495;52.208;5.158;2024-02-21T02:48:57;19.20;;;3.95;;
65757;SDS011;52495;52.208;5.158;2024-02-21T02:51:24;16.52;;;4.65;;
65757;SDS011;52495;52.208;5.158;2024-02-21T02:53:51;18.50;;;3.63;;
65757;SDS011;52495;52.208;5.158;2024-02-21T02:56:17;17.05;;;4.57;;
65757;SDS011;52495;52.208;5.158;2024-02-21T02:58:45;14.23;;;3.20;;
65757;SDS011;52495;52.208;5.158;2024-02-21T03:01:12;15.23;;;3.45;;
65757;SDS011;52495;52.208;5.158;2024-02-21T03:03:40;17.30;;;3.75;;
65757;SDS011;52495;52.208;5.158;2024-02-21T03:06:06;18.58;;;3.92;;
65757;SDS011;52495;52.208;5.158;2024-02-21T03:08:33;15.18;;;3.42;;
65757;SDS011;52495;52.208;5.158;2024-02-21T03:11:00;18.52;;;4.82;;
65757;SDS011;52495;52.208;5.158;2024-02-21T03:13:27;18.08;;;3.90;;
65757;SDS011;52495;52.208;5.158;2024-02-21T03:15:55;17.45;;;4.57;;
65757;SDS011;52495;52.208;5.158;2024-02-21T03:18:22;11.75;;;4.20;;
65757;SDS011;52495;52.208;5.158;2024-02-21T03:20:48;12.85;;;4.00;;
65757;SDS011;52495;52.208;5.158;2024-02-21T03:23:15;13.93;;;4.15;;
65757;SDS011;52495;52.208;5.158;2024-02-21T03:25:42;12.68;;;3.75;;
65757;SDS011;52495;52.208;5.158;2024-02-21T03:28:08;12.32;;;4.03;;
65757;SDS011;52495;52.208;5.158;2024-02-21T03:30:35;12.70;;;4.28;;
65757;SDS011;52495;52.208;5.158;2024-02-21T03:33:03;18.85;;;4.72;;
65757;SDS011;52495;52.208;5.158;2024-02-21T03:35:30;18.50;;;4.30;;
65757;SDS011;52495;52.208;5.158;2024-02-21T03:37:57;20.33;;;4.45;;
65757;SDS011;52495;52.208;5.158;2024-02-21T03:40:23;12.55;;;4.22;;
65757;SDS011;52495;52.208;5.158;2024-02-21T03:42:50;13.18;;;4.18;;
65757;SDS011;52495;52.208;5.158;2024-02-21T03:45:17;18.63;;;5.40;;
65757;SDS011;52495;52.208;5.158;2024-02-21T03:47:43;15.77;;;3.88;;
65757;SDS011;52495;52.208;5.158;2024-02-21T03:50:12;17.67;;;4.35;;
65757;SDS011;52495;52.208;5.158;2024-02-21T03:52:39;17.45;;;4.28;;
65757;SDS011;52495;52.208;5.158;2024-02-21T03:55:06;15.10;;;4.72;;
65757;SDS011;52495;52.208;5.158;2024-02-21T03:57:33;13.40;;;4.53;;
65757;SDS011;52495;52.208;5.158;2024-02-21T04:00:01;19.83;;;5.07;;
65757;SDS011;52495;52.208;5.158;2024-02-21T04:02:32;16.20;;;5.27;;
65757;SDS011;52495;52.208;5.158;2024-02-21T04:04:59;18.85;;;4.35;;
65757;SDS011;52495;52.208;5.158;2024-02-21T04:07:27;12.27;;;4.20;;
65757;SDS011;52495;52.208;5.158;2024-02-21T04:09:54;13.05;;;4.28;;
65757;SDS011;52495;52.208;5.158;2024-02-21T04:12:20;15.82;;;4.13;;
65757;SDS011;52495;52.208;5.158;2024-02-21T04:14:47;13.50;;;4.93;;
65757;SDS011;52495;52.208;5.158;2024-02-21T04:17:14;13.68;;;4.85;;
65757;SDS011;52495;52.208;5.158;2024-02-21T04:19:40;18.00;;;6.03;;
65757;SDS011;52495;52.208;5.158;2024-02-21T04:22:07;12.05;;;5.55;;
65757;SDS011;52495;52.208;5.158;2024-02-21T04:24:35;15.38;;;6.05;;
65757;SDS011;52495;52.208;5.158;2024-02-21T04:27:02;10.57;;;5.45;;
65757;SDS011;52495;52.208;5.158;2024-02-21T04:29:29;12.23;;;5.63;;
65757;SDS011;52495;52.208;5.158;2024-02-21T04:31:56;13.40;;;5.85;;
65757;SDS011;52495;52.208;5.158;2024-02-21T04:34:22;16.75;;;6.05;;
65757;SDS011;52495;52.208;5.158;2024-02-21T04:36:49;15.55;;;5.72;;
65757;SDS011;52495;52.208;5.158;2024-02-21T04:39:16;15.52;;;5.50;;
65757;SDS011;52495;52.208;5.158;2024-02-21T04:41:44;11.50;;;5.88;;
65757;SDS011;52495;52.208;5.158;2024-02-21T04:44:10;15.52;;;5.78;;
65757;SDS011;52495;52.208;5.158;2024-02-21T04:46:37;10.98;;;5.07;;
65757;SDS011;52495;52.208;5.158;2024-02-21T04:49:08;11.10;;;5.68;;
65757;SDS011;52495;52.208;5.158;2024-02-21T04:51:34;13.93;;;5.63;;
65757;SDS011;52495;52.208;5.158;2024-02-21T04:54:01;14.75;;;6.20;;
65757;SDS011;52495;52.208;5.158;2024-02-21T04:56:28;12.13;;;5.90;;
65757;SDS011;52495;52.208;5.158;2024-02-21T04:58:56;15.07;;;6.25;;
65757;SDS011;52495;52.208;5.158;2024-02-21T05:01:23;12.98;;;5.28;;
65757;SDS011;52495;52.208;5.158;2024-02-21T05:03:50;11.85;;;6.13;;
65757;SDS011;52495;52.208;5.158;2024-02-21T05:06:17;11.32;;;6.05;;
65757;SDS011;52495;52.208;5.158;2024-02-21T05:08:44;12.73;;;6.80;;
65757;SDS011;52495;52.208;5.158;2024-02-21T05:11:11;13.32;;;6.18;;
65757;SDS011;52495;52.208;5.158;2024-02-21T05:13:37;10.27;;;5.63;;
65757;SDS011;52495;52.208;5.158;2024-02-21T05:16:06;9.77;;;5.70;;
65757;SDS011;52495;52.208;5.158;2024-02-21T05:18:32;10.60;;;5.60;;
65757;SDS011;52495;52.208;5.158;2024-02-21T05:20:59;10.73;;;5.75;;
65757;SDS011;52495;52.208;5.158;2024-02-21T05:23:27;15.07;;;6.25;;
65757;SDS011;52495;52.208;5.158;2024-02-21T05:25:53;11.48;;;6.40;;
65757;SDS011;52495;52.208;5.158;2024-02-21T05:28:20;16.23;;;6.78;;
65757;SDS011;52495;52.208;5.158;2024-02-21T05:30:47;12.43;;;6.53;;
65757;SDS011;52495;52.208;5.158;2024-02-21T05:33:15;10.23;;;6.93;;
65757;SDS011;52495;52.208;5.158;2024-02-21T05:35:46;10.40;;;6.32;;
65757;SDS011;52495;52.208;5.158;2024-02-21T05:38:13;12.50;;;7.20;;
65757;SDS011;52495;52.208;5.158;2024-02-21T05:40:39;12.77;;;6.70;;
65757;SDS011;52495;52.208;5.158;2024-02-21T05:43:06;13.27;;;7.35;;
65757;SDS011;52495;52.208;5.158;2024-02-21T05:45:34;18.92;;;7.15;;
65757;SDS011;52495;52.208;5.158;2024-02-21T05:48:01;12.48;;;6.85;;
65757;SDS011;52495;52.208;5.158;2024-02-21T05:50:29;11.68;;;7.38;;
65757;SDS011;52495;52.208;5.158;2024-02-21T05:52:57;12.75;;;7.45;;
65757;SDS011;52495;52.208;5.158;2024-02-21T05:55:24;16.25;;;9.43;;
65757;SDS011;52495;52.208;5.158;2024-02-21T05:57:53;15.02;;;7.70;;
65757;SDS011;52495;52.208;5.158;2024-02-21T06:00:20;15.85;;;7.03;;
65757;SDS011;52495;52.208;5.158;2024-02-21T06:02:47;17.13;;;8.13;;
65757;SDS011;52495;52.208;5.158;2024-02-21T06:05:13;12.43;;;8.50;;
65757;SDS011;52495;52.208;5.158;2024-02-21T06:07:41;12.57;;;8.15;;
65757;SDS011;52495;52.208;5.158;2024-02-21T06:10:08;14.05;;;8.07;;
65757;SDS011;52495;52.208;5.158;2024-02-21T06:12:35;15.35;;;8.23;;
65757;SDS011;52495;52.208;5.158;2024-02-21T06:15:02;13.30;;;7.57;;
65757;SDS011;52495;52.208;5.158;2024-02-21T06:17:29;15.35;;;8.55;;
65757;SDS011;52495;52.208;5.158;2024-02-21T06:19:56;15.05;;;8.63;;
65757;SDS011;52495;52.208;5.158;2024-02-21T06:22:23;13.60;;;8.32;;
65757;SDS011;52495;52.208;5.158;2024-02-21T06:24:51;14.10;;;8.48;;
65757;SDS011;52495;52.208;5.158;2024-02-21T06:27:19;14.07;;;8.35;;
65757;SDS011;52495;52.208;5.158;2024-02-21T06:29:46;16.27;;;8.70;;
65757;SDS011;52495;52.208;5.158;2024-02-21T06:32:12;15.65;;;8.93;;
65757;SDS011;52495;52.208;5.158;2024-02-21T06:34:39;14.15;;;8.20;;
65757;SDS011;52495;52.208;5.158;2024-02-21T06:37:06;16.83;;;8.65;;
65757;SDS011;52495;52.208;5.158;2024-02-21T06:39:33;14.88;;;8.10;;
65757;SDS011;52495;52.208;5.158;2024-02-21T06:42:03;16.92;;;9.07;;
65757;SDS011;52495;52.208;5.158;2024-02-21T06:44:30;16.20;;;9.43;;
65757;SDS011;52495;52.208;5.158;2024-02-21T06:46:57;16.45;;;9.15;;
65757;SDS011;52495;52.208;5.158;2024-02-21T06:49:24;14.75;;;9.20;;
65757;SDS011;52495;52.208;5.158;2024-02-21T06:51:51;19.02;;;8.88;;
65757;SDS011;52495;52.208;5.158;2024-02-21T06:54:18;13.43;;;9.43;;
65757;SDS011;52495;52.208;5.158;2024-02-21T06:56:44;15.95;;;8.52;;
65757;SDS011;52495;52.208;5.158;2024-02-21T06:59:13;17.70;;;8.30;;
65757;SDS011;52495;52.208;5.158;2024-02-21T07:01:44;16.85;;;9.32;;
65757;SDS011;52495;52.208;5.158;2024-02-21T07:04:11;15.80;;;9.65;;
65757;SDS011;52495;52.208;5.158;2024-02-21T07:06:38;17.38;;;9.00;;
65757;SDS011;52495;52.208;5.158;2024-02-21T07:09:04;15.65;;;9.15;;
65757;SDS011;52495;52.208;5.158;2024-02-21T07:11:31;17.98;;;9.27;;
65757;SDS011;52495;52.208;5.158;2024-02-21T07:13:58;15.00;;;9.27;;
65757;SDS011;52495;52.208;5.158;2024-02-21T07:16:26;15.75;;;8.80;;
65757;SDS011;52495;52.208;5.158;2024-02-21T07:18:54;17.73;;;9.75;;
65757;SDS011;52495;52.208;5.158;2024-02-21T07:21:21;19.10;;;9.48;;
65757;SDS011;52495;52.208;5.158;2024-02-21T07:23:48;17.38;;;10.38;;
65757;SDS011;52495;52.208;5.158;2024-02-21T07:26:15;17.23;;;9.73;;
65757;SDS011;52495;52.208;5.158;2024-02-21T07:28:41;17.38;;;9.63;;
65757;SDS011;52495;52.208;5.158;2024-02-21T07:31:08;20.42;;;8.73;;
65757;SDS011;52495;52.208;5.158;2024-02-21T07:33:36;18.42;;;9.45;;
65757;SDS011;52495;52.208;5.158;2024-02-21T07:36:05;14.88;;;8.35;;
65757;SDS011;52495;52.208;5.158;2024-02-21T07:38:34;16.23;;;8.38;;
65757;SDS011;52495;52.208;5.158;2024-02-21T07:41:01;17.75;;;9.40;;
65757;SDS011;52495;52.208;5.158;2024-02-21T07:43:29;24.05;;;10.27;;
65757;SDS011;52495;52.208;5.158;2024-02-21T07:45:56;17.33;;;9.57;;
65757;SDS011;52495;52.208;5.158;2024-02-21T07:48:22;15.52;;;8.85;;
65757;SDS011;52495;52.208;5.158;2024-02-21T07:50:53;20.00;;;9.43;;
65757;SDS011;52495;52.208;5.158;2024-02-21T07:53:20;16.75;;;9.57;;
65757;SDS011;52495;52.208;5.158;2024-02-21T07:55:47;17.52;;;10.25;;
65757;SDS011;52495;52.208;5.158;2024-02-21T07:58:14;18.88;;;9.77;;
65757;SDS011;52495;52.208;5.158;2024-02-21T08:00:40;19.77;;;9.68;;
65757;SDS011;52495;52.208;5.158;2024-02-21T08:03:07;22.05;;;10.05;;
65757;SDS011;52495;52.208;5.158;2024-02-21T08:05:34;20.17;;;10.20;;
65757;SDS011;52495;52.208;5.158;2024-02-21T08:08:02;17.80;;;9.85;;
65757;SDS011;52495;52.208;5.158;2024-02-21T08:10:29;18.33;;;9.52;;
65757;SDS011;52495;52.208;5.158;2024-02-21T08:12:56;20.58;;;10.18;;
65757;SDS011;52495;52.208;5.158;2024-02-21T08:15:23;14.80;;;8.70;;
65757;SDS011;52495;52.208;5.158;2024-02-21T08:17:53;17.40;;;9.63;;
65757;SDS011;52495;52.208;5.158;2024-02-21T08:20:24;22.70;;;10.75;;
65757;SDS011;52495;52.208;5.158;2024-02-21T08:22:50;20.00;;;9.95;;
65757;SDS011;52495;52.208;5.158;2024-02-21T08:25:18;33.50;;;12.00;;
65757;SDS011;52495;52.208;5.158;2024-02-21T08:27:45;28.00;;;11.02;;
65757;SDS011;52495;52.208;5.158;2024-02-21T08:30:12;17.80;;;10.52;;
65757;SDS011;52495;52.208;5.158;2024-02-21T08:32:39;17.45;;;9.75;;
65757;SDS011;52495;52.208;5.158;2024-02-21T08:35:06;21.05;;;10.07;;
65757;SDS011;52495;52.208;5.158;2024-02-21T08:37:33;22.00;;;11.30;;
65757;SDS011;52495;52.208;5.158;2024-02-21T08:40:00;22.25;;;10.60;;
65757;SDS011;52495;52.208;5.158;2024-02-21T08:42:31;22.80;;;10.60;;
65757;SDS011;52495;52.208;5.158;2024-02-21T08:44:58;21.20;;;10.88;;
65757;SDS011;52495;52.208;5.158;2024-02-21T08:47:24;14.60;;;9.52;;
65757;SDS011;52495;52.208;5.158;2024-02-21T08:49:51;22.13;;;10.57;;
65757;SDS011;52495;52.208;5.158;2024-02-21T08:52:18;17.55;;;9.98;;
65757;SDS011;52495;52.208;5.158;2024-02-21T08:54:45;19.73;;;10.20;;
65757;SDS011;52495;52.208;5.158;2024-02-21T08:57:11;23.77;;;11.13;;
65757;SDS011;52495;52.208;5.158;2024-02-21T08:59:40;17.40;;;11.20;;
65757;SDS011;52495;52.208;5.158;2024-02-21T09:02:07;19.40;;;12.65;;
65757;SDS011;52495;52.208;5.158;2024-02-21T09:04:35;21.45;;;11.55;;
65757;SDS011;52495;52.208;5.158;2024-02-21T09:07:02;18.83;;;12.02;;
65757;SDS011;52495;52.208;5.158;2024-02-21T09:09:28;21.20;;;12.48;;
65757;SDS011;52495;52.208;5.158;2024-02-21T09:11:56;20.25;;;12.23;;
65757;SDS011;52495;52.208;5.158;2024-02-21T09:14:23;18.33;;;10.77;;
65757;SDS011;52495;52.208;5.158;2024-02-21T09:16:51;19.45;;;11.90;;
65757;SDS011;52495;52.208;5.158;2024-02-21T09:19:18;20.88;;;12.13;;
65757;SDS011;52495;52.208;5.158;2024-02-21T09:21:44;19.42;;;11.65;;
65757;SDS011;52495;52.208;5.158;2024-02-21T09:24:11;17.02;;;11.40;;
65757;SDS011;52495;52.208;5.158;2024-02-21T09:26:38;22.77;;;11.77;;
65757;SDS011;52495;52.208;5.158;2024-02-21T09:29:04;17.70;;;10.93;;
65757;SDS011;52495;52.208;5.158;2024-02-21T09:31:31;17.02;;;11.18;;
65757;SDS011;52495;52.208;5.158;2024-02-21T09:33:59;17.05;;;10.32;;
65757;SDS011;52495;52.208;5.158;2024-02-21T09:36:26;20.65;;;10.70;;
65757;SDS011;52495;52.208;5.158;2024-02-21T09:38:53;17.27;;;10.18;;
65757;SDS011;52495;52.208;5.158;2024-02-21T09:41:22;18.00;;;9.75;;
65757;SDS011;52495;52.208;5.158;2024-02-21T09:43:52;16.20;;;10.63;;
65757;SDS011;52495;52.208;5.158;2024-02-21T09:46:21;21.02;;;10.50;;
65757;SDS011;52495;52.208;5.158;2024-02-21T09:49:11;15.07;;;9.80;;
65757;SDS011;52495;52.208;5.158;2024-02-21T09:51:48;15.98;;;10.00;;
65757;SDS011;52495;52.208;5.158;2024-02-21T09:54:18;15.10;;;8.88;;
65757;SDS011;52495;52.208;5.158;2024-02-21T09:56:48;13.82;;;8.57;;
65757;SDS011;52495;52.208;5.158;2024-02-21T09:59:14;14.13;;;8.82;;
65757;SDS011;52495;52.208;5.158;2024-02-21T10:01:42;16.98;;;8.90;;
65757;SDS011;52495;52.208;5.158;2024-02-21T10:04:10;15.52;;;8.60;;
65757;SDS011;52495;52.208;5.158;2024-02-21T10:06:37;20.83;;;8.68;;
65757;SDS011;52495;52.208;5.158;2024-02-21T10:09:05;12.77;;;7.60;;
65757;SDS011;52495;52.208;5.158;2024-02-21T10:11:32;12.93;;;8.60;;
65757;SDS011;52495;52.208;5.158;2024-02-21T10:14:03;12.15;;;7.40;;
65757;SDS011;52495;52.208;5.158;2024-02-21T10:16:31;12.00;;;7.00;;
65757;SDS011;52495;52.208;5.158;2024-02-21T10:18:58;11.70;;;7.07;;
65757;SDS011;52495;52.208;5.158;2024-02-21T10:21:27;11.82;;;6.97;;
65757;SDS011;52495;52.208;5.158;2024-02-21T10:23:54;13.00;;;6.50;;
65757;SDS011;52495;52.208;5.158;2024-02-21T10:26:22;14.32;;;7.35;;
65757;SDS011;52495;52.208;5.158;2024-02-21T10:28:49;11.07;;;6.75;;
65757;SDS011;52495;52.208;5.158;2024-02-21T10:31:23;11.60;;;6.80;;
65757;SDS011;52495;52.208;5.158;2024-02-21T10:33:53;10.13;;;6.22;;
65757;SDS011;52495;52.208;5.158;2024-02-21T10:36:21;10.48;;;6.40;;
65757;SDS011;52495;52.208;5.158;2024-02-21T10:38:50;11.63;;;6.97;;
65757;SDS011;52495;52.208;5.158;2024-02-21T10:41:19;10.88;;;7.03;;
65757;SDS011;52495;52.208;5.158;2024-02-21T10:43:49;13.63;;;6.90;;
65757;SDS011;52495;52.208;5.158;2024-02-21T10:46:19;11.45;;;6.63;;
65757;SDS011;52495;52.208;5.158;2024-02-21T10:48:47;11.35;;;6.90;;
65757;SDS011;52495;52.208;5.158;2024-02-21T10:51:18;11.80;;;6.70;;
65757;SDS011;52495;52.208;5.158;2024-02-21T10:53:47;11.57;;;5.93;;
65757;SDS011;52495;52.208;5.158;2024-02-21T10:56:26;11.55;;;6.28;;
65757;SDS011;52495;52.208;5.158;2024-02-21T10:58:55;10.48;;;5.85;;
65757;SDS011;52495;52.208;5.158;2024-02-21T11:01:24;10.88;;;5.40;;
65757;SDS011;52495;52.208;5.158;2024-02-21T11:03:54;9.32;;;5.68;;
65757;SDS011;52495;52.208;5.158;2024-02-21T11:06:23;10.27;;;5.65;;
65757;SDS011;52495;52.208;5.158;2024-02-21T11:09:02;9.93;;;5.75;;
65757;SDS011;52495;52.208;5.158;2024-02-21T11:11:30;9.88;;;5.25;;
65757;SDS011;52495;52.208;5.158;2024-02-21T11:14:06;11.57;;;5.97;;
65757;SDS011;52495;52.208;5.158;2024-02-21T11:16:37;9.23;;;5.03;;
65757;SDS011;52495;52.208;5.158;2024-02-21T11:19:05;10.45;;;5.35;;
65757;SDS011;52495;52.208;5.158;2024-02-21T11:21:33;7.50;;;5.00;;
65757;SDS011;52495;52.208;5.158;2024-02-21T11:24:01;10.32;;;5.65;;
65757;SDS011;52495;52.208;5.158;2024-02-21T11:26:29;9.23;;;5.43;;
65757;SDS011;52495;52.208;5.158;2024-02-21T11:28:57;7.50;;;5.00;;
65757;SDS011;52495;52.208;5.158;2024-02-21T11:31:25;11.80;;;5.95;;
65757;SDS011;52495;52.208;5.158;2024-02-21T11:33:53;8.95;;;6.15;;
65757;SDS011;52495;52.208;5.158;2024-02-21T11:36:24;7.28;;;5.10;;
65757;SDS011;52495;52.208;5.158;2024-02-21T11:38:51;11.50;;;6.57;;
65757;SDS011;52495;52.208;5.158;2024-02-21T11:41:24;10.25;;;6.20;;
65757;SDS011;52495;52.208;5.158;2024-02-21T11:43:51;8.63;;;6.80;;
65757;SDS011;52495;52.208;5.158;2024-02-21T11:46:18;9.63;;;6.45;;
65757;SDS011;52495;52.208;5.158;2024-02-21T11:48:45;10.15;;;6.40;;
65757;SDS011;52495;52.208;5.158;2024-02-21T11:51:21;8.68;;;6.25;;
65757;SDS011;52495;52.208;5.158;2024-02-21T11:53:50;10.15;;;6.93;;
65757;SDS011;52495;52.208;5.158;2024-02-21T11:56:18;8.77;;;5.88;;
65757;SDS011;52495;52.208;5.158;2024-02-21T11:58:47;10.15;;;6.07;;
65757;SDS011;52495;52.208;5.158;2024-02-21T12:01:13;12.48;;;6.18;;
65757;SDS011;52495;52.208;5.158;2024-02-21T12:03:40;9.65;;;6.65;;
65757;SDS011;52495;52.208;5.158;2024-02-21T12:06:15;9.48;;;6.13;;
65757;SDS011;52495;52.208;5.158;2024-02-21T12:08:44;7.38;;;5.90;;
65757;SDS011;52495;52.208;5.158;2024-02-21T12:11:18;10.95;;;6.80;;
65757;SDS011;52495;52.208;5.158;2024-02-21T12:13:57;9.32;;;6.53;;
65757;SDS011;52495;52.208;5.158;2024-02-21T12:16:26;11.80;;;6.85;;
65757;SDS011;52495;52.208;5.158;2024-02-21T12:18:53;11.57;;;7.25;;
65757;SDS011;52495;52.208;5.158;2024-02-21T12:21:23;12.38;;;6.28;;
65757;SDS011;52495;52.208;5.158;2024-02-21T12:23:50;11.20;;;6.22;;
65757;SDS011;52495;52.208;5.158;2024-02-21T12:26:17;9.70;;;5.93;;
65757;SDS011;52495;52.208;5.158;2024-02-21T12:28:43;11.75;;;6.15;;
65757;SDS011;52495;52.208;5.158;2024-02-21T12:31:11;9.18;;;5.40;;
65757;SDS011;52495;52.208;5.158;2024-02-21T12:33:39;14.02;;;6.82;;
65757;SDS011;52495;52.208;5.158;2024-02-21T12:36:06;10.43;;;5.97;;
65757;SDS011;52495;52.208;5.158;2024-02-21T12:38:34;10.25;;;6.18;;
65757;SDS011;52495;52.208;5.158;2024-02-21T12:41:00;9.85;;;6.05;;
65757;SDS011;52495;52.208;5.158;2024-02-21T12:43:27;12.00;;;6.05;;
65757;SDS011;52495;52.208;5.158;2024-02-21T12:45:54;11.23;;;5.95;;
65757;SDS011;52495;52.208;5.158;2024-02-21T12:48:22;7.88;;;6.15;;
65757;SDS011;52495;52.208;5.158;2024-02-21T12:50:50;8.98;;;5.90;;
65757;SDS011;52495;52.208;5.158;2024-02-21T12:53:17;8.60;;;5.90;;
65757;SDS011;52495;52.208;5.158;2024-02-21T12:55:46;9.25;;;6.00;;
65757;SDS011;52495;52.208;5.158;2024-02-21T12:58:13;9.70;;;5.93;;
65757;SDS011;52495;52.208;5.158;2024-02-21T13:00:40;7.13;;;5.32;;
65757;SDS011;52495;52.208;5.158;2024-02-21T13:03:07;8.60;;;5.57;;
65757;SDS011;52495;52.208;5.158;2024-02-21T13:05:36;10.60;;;5.95;;
65757;SDS011;52495;52.208;5.158;2024-02-21T13:08:04;8.35;;;5.13;;
65757;SDS011;52495;52.208;5.158;2024-02-21T13:10:31;8.60;;;5.18;;
65757;SDS011;52495;52.208;5.158;2024-02-21T13:12:59;7.53;;;5.03;;
65757;SDS011;52495;52.208;5.158;2024-02-21T13:15:26;8.50;;;5.45;;
65757;SDS011;52495;52.208;5.158;2024-02-21T13:17:53;7.60;;;5.15;;
65757;SDS011;52495;52.208;5.158;2024-02-21T13:20:20;8.18;;;4.82;;
65757;SDS011;52495;52.208;5.158;2024-02-21T13:22:48;9.00;;;5.43;;
65757;SDS011;52495;52.208;5.158;2024-02-21T13:25:15;7.83;;;4.90;;
65757;SDS011;52495;52.208;5.158;2024-02-21T13:27:45;8.18;;;5.50;;
65757;SDS011;52495;52.208;5.158;2024-02-21T13:30:12;9.23;;;4.97;;
65757;SDS011;52495;52.208;5.158;2024-02-21T13:32:41;7.35;;;4.32;;
65757;SDS011;52495;52.208;5.158;2024-02-21T13:35:07;8.45;;;4.60;;
65757;SDS011;52495;52.208;5.158;2024-02-21T13:37:37;6.97;;;4.60;;
65757;SDS011;52495;52.208;5.158;2024-02-21T13:40:06;11.63;;;4.80;;
65757;SDS011;52495;52.208;5.158;2024-02-21T13:42:35;6.43;;;4.40;;
65757;SDS011;52495;52.208;5.158;2024-02-21T13:45:02;7.88;;;4.35;;
65757;SDS011;52495;52.208;5.158;2024-02-21T13:47:31;9.60;;;3.92;;
65757;SDS011;52495;52.208;5.158;2024-02-21T13:50:01;8.77;;;4.45;;
65757;SDS011;52495;52.208;5.158;2024-02-21T13:52:34;9.50;;;3.70;;
65757;SDS011;52495;52.208;5.158;2024-02-21T13:55:01;7.22;;;4.30;;
65757;SDS011;52495;52.208;5.158;2024-02-21T13:57:29;8.77;;;4.65;;
65757;SDS011;52495;52.208;5.158;2024-02-21T13:59:56;10.75;;;5.40;;
65757;SDS011;52495;52.208;5.158;2024-02-21T14:02:22;7.70;;;3.80;;
65757;SDS011;52495;52.208;5.158;2024-02-21T14:04:49;6.15;;;4.07;;
65757;SDS011;52495;52.208;5.158;2024-02-21T14:07:16;7.90;;;4.57;;
65757;SDS011;52495;52.208;5.158;2024-02-21T14:09:43;10.02;;;5.28;;
65757;SDS011;52495;52.208;5.158;2024-02-21T14:12:10;11.85;;;4.80;;
65757;SDS011;52495;52.208;5.158;2024-02-21T14:14:39;8.52;;;5.03;;
65757;SDS011;52495;52.208;5.158;2024-02-21T14:17:07;13.40;;;4.90;;
65757;SDS011;52495;52.208;5.158;2024-02-21T14:19:33;9.55;;;5.40;;
65757;SDS011;52495;52.208;5.158;2024-02-21T14:22:00;9.70;;;4.80;;
65757;SDS011;52495;52.208;5.158;2024-02-21T14:24:27;10.13;;;4.53;;
65757;SDS011;52495;52.208;5.158;2024-02-21T14:26:54;8.90;;;4.68;;
65757;SDS011;52495;52.208;5.158;2024-02-21T14:29:21;11.38;;;4.90;;
65757;SDS011;52495;52.208;5.158;2024-02-21T14:31:49;10.35;;;4.35;;
65757;SDS011;52495;52.208;5.158;2024-02-21T14:34:16;6.80;;;4.18;;
65757;SDS011;52495;52.208;5.158;2024-02-21T14:36:43;11.80;;;4.93;;
65757;SDS011;52495;52.208;5.158;2024-02-21T14:39:09;8.60;;;4.15;;